Latest Weather Observations for Taree Airport

IDN60801

Issued at 11:32 pm EST Sunday 30 August 2015 (issued every 30 minutes, with the page automatically refreshed every 10 minutes)

About weather observations | Map of weather stations | Latest weather observations for NSW | Other Formats
Station Details ID: 060141 Name: TAREE AIRPORT AWS Lat: -31.89 Lon: 152.51 Height: 8.0 m
Data from the previous 72 hours. | See also: Recent months at Taree Airport
Date/Time
EST
Temp
°C
App
Temp
°C
Dew
Point
Rel
Hum
%
Delta-T
°C
Wind Press
QNH
hPa
Press
MSL
hPa
Rain
since 9 am
mm
Dir
 
Spd
km/h
Gust
km/h
Spd
kts
Gust
kts
30/11:30pm 10.0 7.4 6.2 77 1.8 W 9 13 5 7 1017.5 1017.5 0.0
30/11:00pm 9.9 6.9 6.2 78 1.7 WNW 11 13 6 7 1017.6 1017.6 0.0
30/10:30pm 10.4 7.5 6.5 77 1.8 W 11 13 6 7 1017.7 1017.7 0.0
30/10:00pm 11.1 8.6 6.6 74 2.1 WNW 9 11 5 6 1018.0 1018.0 0.0
30/09:30pm 10.8 7.9 6.7 76 1.9 NW 11 13 6 7 1018.0 1018.0 0.0
30/09:00pm 11.7 8.9 6.8 72 2.3 NW 11 13 6 7 1018.0 1018.0 0.0
30/08:30pm 12.1 9.3 7.0 71 2.4 NW 11 13 6 7 1017.8 1017.8 0.0
30/08:00pm 12.1 9.7 7.2 72 2.4 NW 9 11 5 6 1017.7 1017.7 0.0
30/07:30pm 12.6 10.9 7.5 71 2.5 S 6 7 3 4 1017.6 1017.6 0.0
30/07:00pm 13.0 10.8 7.7 70 2.6 S 9 11 5 6 1017.3 1017.3 0.0
30/06:30pm 13.5 10.9 7.7 68 2.9 S 11 13 6 7 1016.9 1016.9 0.0
30/06:00pm 14.3 10.9 7.8 65 3.2 SSE 15 19 8 10 1016.6 1016.6 0.0
30/05:30pm 15.3 12.1 8.3 63 3.5 SSE 15 20 8 11 1016.3 1016.3 0.0
30/05:00pm 16.1 12.1 8.1 59 4.0 SSE 19 26 10 14 1016.0 1016.0 0.0
30/04:30pm 17.1 12.0 7.5 53 4.8 SSE 24 32 13 17 1015.7 1015.7 0.0
30/04:00pm 17.8 13.7 6.3 47 5.7 S 17 22 9 12 1015.5 1015.5 0.0
30/03:30pm 17.4 13.1 6.9 50 5.2 SE 19 28 10 15 1015.4 1015.4 0.0
30/03:00pm 18.4 13.3 7.8 50 5.4 SE 24 28 13 15 1015.6 1015.6 0.0
30/02:30pm 17.7 12.7 6.6 48 5.5 SE 22 30 12 16 1015.6 1015.6 0.0
30/02:00pm 19.0 16.3 5.5 41 6.6 SSE 9 22 5 12 1015.7 1015.7 0.0
30/01:30pm 18.4 14.1 3.5 37 7.0 S 15 20 8 11 1016.0 1016.0 0.0
30/01:00pm 18.7 15.1 4.8 40 6.7 SW 13 22 7 12 1016.3 1016.3 0.0
30/12:30pm 18.6 15.7 4.8 40 6.6 SSW 9 17 5 9 1016.7 1016.7 0.0
30/12:00pm 18.5 14.7 6.0 44 6.1 SSW 15 19 8 10 1017.2 1017.2 0.0
30/11:30am 17.5 13.4 4.1 41 6.3 WSW 15 20 8 11 1017.8 1017.8 0.0
30/11:00am 17.3 14.4 4.9 44 5.9 WSW 9 17 5 9 1018.3 1018.3 0.0
30/10:30am 16.3 12.6 4.7 46 5.5 WSW 13 22 7 12 1018.7 1018.7 0.0
30/10:00am 15.4 11.4 4.8 49 5.0 WSW 15 26 8 14 1019.0 1019.0 0.0
30/09:30am 14.9 10.6 5.4 53 4.5 W 17 24 9 13 1019.3 1019.3 0.0
30/09:00am 14.3 10.0 5.1 54 4.3 W 17 24 9 13 1019.3 1019.3 0.0
30/08:30am 13.7 9.8 5.3 57 3.9 W 15 24 8 13 1019.3 1019.3 0.0
30/08:00am 12.3 8.9 6.1 66 2.9 W 13 17 7 9 1019.3 1019.3 0.0
30/07:30am 10.7 8.0 5.5 70 2.4 W 9 15 5 8 1019.1 1019.1 0.0
30/07:00am 9.7 7.3 5.3 74 2.0 W 7 9 4 5 1018.9 1018.9 0.0
30/06:30am 9.2 6.4 5.0 75 1.9 WNW 9 11 5 6 1018.6 1018.6 0.0
30/06:00am 9.8 6.2 5.0 72 2.2 WNW 13 15 7 8 1018.4 1018.4 0.0
30/05:30am 9.8 6.2 5.0 72 2.2 WNW 13 17 7 9 1018.3 1018.3 0.0
30/05:00am 9.9 6.7 5.3 73 2.1 WNW 11 13 6 7 1018.3 1018.3 0.0
30/04:30am 9.2 6.8 5.2 76 1.8 NW 7 9 4 5 1018.3 1018.3 0.0
30/04:00am 10.4 7.7 5.8 73 2.1 WSW 9 11 5 6 1018.2 1018.2 0.0
30/03:30am 11.6 8.5 5.7 67 2.7 NW 11 13 6 7 1018.1 1018.1 0.0
30/03:00am 11.6 8.6 5.9 68 2.7 WNW 11 15 6 8 1018.1 1018.1 0.0
30/02:30am 11.8 8.5 6.3 69 2.6 NW 13 13 7 7 1018.1 1018.1 0.0
30/02:00am 11.2 8.6 6.3 72 2.3 WNW 9 11 5 6 1018.3 1018.3 0.0
30/01:30am 11.6 8.4 6.9 73 2.2 SW 13 17 7 9 1018.3 1018.3 0.0
30/01:00am 11.8 8.8 7.5 75 2.1 WSW 13 17 7 9 1018.7 1018.7 0.0
30/12:30am 11.2 9.1 8.1 81 1.5 W 9 13 5 7 1019.0 1019.0 0.0
30/12:00am 11.3 9.3 8.5 83 1.4 WNW 9 11 5 6 1019.3 1019.3 0.0
 
Date/Time
EST
Temp
°C
App
Temp
°C
Dew
Point
Rel
Hum
%
Delta-T
°C
Wind Press
QNH
hPa
Press
MSL
hPa
Rain
since 9 am
mm
Dir
 
Spd
km/h
Gust
km/h
Spd
kts
Gust
kts
29/11:30pm 11.3 9.9 9.0 86 1.1 W 6 7 3 4 1019.2 1019.2 0.0
29/11:00pm 10.8 10.4 8.4 85 1.2 CALM 0 0 0 0 1019.4 1019.4 0.0
29/10:30pm 11.2 10.8 8.1 81 1.5 CALM 0 0 0 0 1019.2 1019.2 0.0
29/10:00pm 12.5 9.8 9.1 80 1.7 W 13 15 7 8 1019.2 1019.2 0.0
29/09:30pm 12.3 10.8 9.0 80 1.7 WNW 7 9 4 5 1019.2 1019.2 0.0
29/09:00pm 12.6 10.7 9.2 80 1.7 NW 9 11 5 6 1019.5 1019.5 0.0
29/08:30pm 11.2 9.2 8.6 84 1.3 NNW 9 9 5 5 1019.6 1019.6 0.0
29/08:00pm 14.0 12.2 9.6 75 2.3 WSW 9 11 5 6 1019.2 1019.2 0.0
29/07:30pm 13.7 12.3 9.7 77 2.1 W 7 9 4 5 1019.1 1019.1 0.0
29/07:00pm 14.0 12.3 10.0 77 2.1 SW 9 13 5 7 1018.9 1018.9 0.0
29/06:30pm 13.9 11.8 9.7 76 2.2 SSW 11 13 6 7 1018.6 1018.6 0.0
29/06:00pm 14.6 12.5 9.8 73 2.5 SSW 11 13 6 7 1018.4 1018.4 0.0
29/05:30pm 16.2 14.2 10.1 67 3.2 SSE 11 13 6 7 1018.1 1018.1 0.0
29/05:00pm 17.1 15.0 9.8 62 3.8 SE 11 15 6 8 1017.9 1017.9 0.0
29/04:30pm 17.7 15.1 9.3 58 4.4 ESE 13 15 7 8 1017.8 1017.8 0.0
29/04:00pm 18.4 15.0 9.2 55 4.8 E 17 22 9 12 1017.7 1017.7 0.0
29/03:30pm 18.4 14.8 8.4 52 5.2 E 17 24 9 13 1017.7 1017.7 0.0
29/03:00pm 19.0 15.2 7.4 47 5.9 E 17 20 9 11 1017.8 1017.8 0.0
29/02:30pm 19.7 16.0 7.8 46 6.1 ESE 17 22 9 12 1017.9 1017.9 0.0
29/02:00pm 19.1 15.1 6.6 44 6.2 ESE 17 22 9 12 1018.2 1018.2 0.0
29/01:30pm 20.5 16.8 7.8 44 6.6 ESE 17 28 9 15 1018.5 1018.5 0.0
29/01:00pm 20.6 17.2 3.8 33 8.0 N 11 20 6 11 1019.1 1019.1 0.0
29/12:30pm 20.5 17.6 4.9 36 7.6 WNW 9 19 5 10 1019.7 1019.7 0.0
29/12:00pm 19.6 15.8 4.1 36 7.4 NW 13 19 7 10 1020.2 1020.2 0.0
29/11:30am 19.4 16.4 4.0 36 7.3 NW 9 20 5 11 1020.8 1020.8 0.0
29/11:00am 18.6 15.7 4.8 40 6.6 NNW 9 17 5 9 1021.5 1021.5 0.0
29/10:30am 17.7 15.7 6.9 49 5.4 SW 7 13 4 7 1022.1 1022.1 0.0
29/10:00am 16.3 14.3 7.0 54 4.6 S 7 11 4 6 1022.4 1022.4 0.0
29/09:30am 14.7 13.1 6.5 58 4.0 WSW 4 9 2 5 1022.8 1022.8 0.0
29/09:00am 13.3 12.1 6.4 63 3.3 SW 2 7 1 4 1023.2 1023.2 0.0
29/08:30am 11.6 9.7 6.7 72 2.3 WNW 6 7 3 4 1023.4 1023.4 0.0
29/08:00am 10.1 7.5 6.1 76 1.8 WNW 9 9 5 5 1023.4 1023.4 0.0
29/07:30am 8.4 6.0 5.2 80 1.4 WNW 7 9 4 5 1023.2 1023.2 0.0
29/07:00am 7.3 5.0 5.6 89 0.8 W 7 9 4 5 1023.1 1023.1 0.0
29/06:30am 4.6 3.3 4.0 96 0.3 CALM 0 6 0 3 1022.8 1022.8 0.0
29/06:00am 4.0 1.2 3.3 95 0.3 NW 7 9 4 5 1022.6 1022.6 0.0
29/05:30am 4.2 2.8 3.6 96 0.2 CALM 0 0 0 0 1022.2 1022.2 0.0
29/05:00am 4.3 2.9 3.7 96 0.2 CALM 0 0 0 0 1022.2 1022.2 0.0
29/04:30am 4.3 2.9 3.6 95 0.3 CALM 0 0 0 0 1022.1 1022.1 0.0
29/04:00am 5.0 2.7 4.6 97 0.2 NE 6 7 3 4 1022.0 1022.0 0.0
29/03:30am 4.4 3.0 3.5 94 0.4 CALM 0 0 0 0 1021.7 1021.7 0.0
29/03:00am 4.6 2.0 3.1 90 0.6 NE 6 7 3 4 1021.8 1021.8 0.0
29/02:30am 7.2 5.5 4.2 81 1.3 W 2 6 1 3 1021.9 1021.9 0.0
29/02:00am 8.1 5.6 5.0 81 1.4 WNW 7 9 4 5 1022.1 1022.1 0.0
29/01:30am 9.0 6.6 5.2 77 1.7 WNW 7 9 4 5 1022.4 1022.4 0.0
29/01:00am 9.5 7.3 5.3 75 1.9 W 6 7 3 4 1022.5 1022.5 0.0
29/12:30am 9.4 6.7 5.8 78 1.6 WSW 9 11 5 6 1022.7 1022.7 0.0
29/12:00am 9.7 7.5 5.5 75 1.9 W 6 7 3 4 1022.7 1022.7 0.0
 
Date/Time
EST
Temp
°C
App
Temp
°C
Dew
Point
Rel
Hum
%
Delta-T
°C
Wind Press
QNH
hPa
Press
MSL
hPa
Rain
since 9 am
mm
Dir
 
Spd
km/h
Gust
km/h
Spd
kts
Gust
kts
28/11:30pm 9.8 6.8 5.8 76 1.8 W 11 13 6 7 1022.7 1022.7 0.0
28/11:00pm 8.3 5.5 5.1 80 1.4 NW 9 11 5 6 1022.6 1022.6 0.0
28/10:30pm 10.1 8.1 7.0 81 1.5 WSW 7 9 4 5 1022.8 1022.8 0.0
28/10:00pm 10.7 8.5 5.5 70 2.4 W 6 7 3 4 1022.8 1022.8 0.0
28/09:30pm 10.6 8.1 6.6 76 1.9 WSW 9 9 5 5 1023.0 1023.0 0.0
28/09:00pm 10.4 8.3 5.8 73 2.1 N 6 9 3 5 1022.9 1022.9 0.0
28/08:30pm 11.1 9.9 6.5 73 2.2 NNW 2 7 1 4 1022.6 1022.6 0.0
28/08:00pm 13.9 11.1 5.3 56 4.0 NW 9 11 5 6 1022.0 1022.0 0.0
28/07:30pm 13.0 12.2 6.4 64 3.1 CALM 0 7 0 4 1021.7 1021.7 0.0
28/07:00pm 15.0 12.8 5.2 52 4.6 W 6 7 3 4 1021.4 1021.4 0.0
28/06:30pm 15.6 13.2 5.2 50 4.9 W 7 7 4 4 1021.1 1021.1 0.0
28/06:00pm 15.9 13.6 5.5 50 5.0 WSW 7 13 4 7 1020.6 1020.6 0.0
28/05:30pm 15.9 12.8 5.5 50 5.0 SSW 11 15 6 8 1020.3 1020.3 0.0
28/05:00pm 17.9 13.6 5.2 43 6.1 SSW 17 20 9 11 1019.8 1019.8 0.0
28/04:30pm 18.9 14.2 5.0 40 6.7 SSW 19 26 10 14 1019.2 1019.2 0.0
28/04:00pm 19.3 14.2 4.3 37 7.2 SW 20 30 11 16 1018.8 1018.8 0.0
28/03:30pm 19.9 14.9 4.8 37 7.3 SSW 20 28 11 15 1018.5 1018.5 0.0
28/03:00pm 20.0 15.0 4.5 36 7.5 SSW 20 28 11 15 1018.4 1018.4 0.0
28/02:30pm 20.3 14.9 4.4 35 7.7 SSW 22 33 12 18 1018.4 1018.4 0.0
28/02:00pm 20.3 14.6 2.6 31 8.2 WSW 22 32 12 17 1018.4 1018.4 0.0
28/01:30pm 20.7 15.5 3.4 32 8.2 W 20 35 11 19 1018.5 1018.5 0.0
28/01:00pm 19.9 14.3 3.2 33 7.8 W 22 33 12 18 1018.7 1018.7 0.0
28/12:30pm 19.5 14.2 3.2 34 7.6 W 20 33 11 18 1019.0 1019.0 0.0
28/12:00pm 19.6 12.6 2.0 31 8.0 W 28 39 15 21 1019.3 1019.3 0.0
28/11:30am 18.8 11.8 1.8 32 7.7 W 28 39 15 21 1019.8 1019.8 0.0
28/11:00am 18.5 13.4 3.2 36 7.1 W 19 30 10 16 1020.1 1020.1 0.0
28/10:30am 17.7 12.8 3.9 40 6.5 W 19 30 10 16 1020.3 1020.3 0.0
28/10:00am 17.5 11.8 5.1 44 5.9 WNW 24 37 13 20 1020.5 1020.5 0.0
28/09:30am 16.2 10.2 3.6 43 5.8 WNW 24 37 13 20 1020.4 1020.4 0.0
28/09:00am 15.9 10.8 4.3 46 5.4 WNW 20 35 11 19 1020.4 1020.4 0.0
28/08:30am 14.6 11.8 5.1 53 4.5 SW 9 15 5 8 1020.5 1020.5 0.0
28/08:00am 13.9 10.8 5.5 57 3.9 NW 11 17 6 9 1020.2 1020.2 0.0
28/07:30am 13.0 9.9 5.7 61 3.4 NNW 11 17 6 9 1019.8 1019.8 0.0
28/07:00am 12.0 8.4 5.0 62 3.2 NW 13 17 7 9 1019.8 1019.8 0.0
28/06:30am 10.7 7.5 5.0 68 2.6 NW 11 13 6 7 1019.7 1019.7 0.0
28/06:00am 10.3 6.8 5.5 72 2.2 WNW 13 17 7 9 1019.4 1019.4 0.0
28/05:30am 7.2 6.2 5.7 90 0.7 CALM 0 0 0 0 1019.4 1019.4 0.0
28/05:00am 10.2 7.9 5.8 74 2.0 WNW 7 11 4 6 1019.2 1019.2 0.0
28/04:30am 9.4 7.0 7.2 86 1.0 W 9 11 5 6 1018.9 1018.9 0.0
28/04:00am 9.5 7.1 6.8 83 1.3 WSW 9 11 5 6 1018.6 1018.6 0.0
28/03:30am 10.3 8.3 7.2 81 1.5 WSW 7 9 4 5 1018.4 1018.4 0.0
28/03:00am 9.2 6.5 5.6 78 1.6 NNW 9 13 5 7 1018.2 1018.2 0.0
28/02:30am 12.5 9.6 6.5 67 2.9 NW 11 13 6 7 1018.3 1018.3 0.0
28/02:00am 10.4 7.8 6.2 75 1.9 WNW 9 13 5 7 1018.4 1018.4 0.0
28/01:30am 12.4 9.6 6.9 69 2.6 NW 11 15 6 8 1018.6 1018.6 0.0
28/01:00am 11.1 9.2 6.5 73 2.2 WNW 6 7 3 4 1018.8 1018.8 0.0
28/12:30am 11.8 9.4 7.1 73 2.3 NNW 9 11 5 6 1019.0 1019.0 0.0
28/12:00am 11.4 9.0 7.1 75 2.0 NNW 9 11 5 6 1019.0 1019.0 0.0

Other Formats:

Comma delimited format used in spreadsheet applications
http://www.bom.gov.au/fwo/IDN60801/IDN60801.95784.axf

JavaScript Object Notation format (JSON) in row-major order
http://www.bom.gov.au/fwo/IDN60801/IDN60801.95784.json